Página principal
METAR-TAF:

METAR-TAF

Aeroportos :

Aeroporto Internacional Diori Hamani

Niamey, Níger

latitude: 13-29N, longitude: 002-10E, altura: 223 m

Observação actual do tempo

O boletim foi feito há 57 minutos, às 05:00 UTC
Vento 3 kt de este
Temperatura 23°C
Humidade 20%
Pressão 1011 hPa
Visibilidade 10 km ou mais
sem nuvens abaixo de 1500 metros e sem cumulonimbus

METAR: DRRN 150500Z 08003KT CAVOK 23/M01 Q1011 NOSIG

Hora: 06:57 (05:57 UTC)

Previsão

O boletim foi feito há 57 minutos, às 05:00 UTC
Previsão válida de 15 às 06 UTC a 16 às 12 UTC
Vento 8 kt de este
Visibilidade: 8000 m
Temporariamente
de 15 às 06 UTC a 15 às 08 UTC
Visibilidade: 4000 m
poeira extensa
Temporariamente
de 15 às 08 UTC a 15 às 13 UTC
Vento 20 kt de este
Visibilidade: 4500 m
Poeira levantada pelo vento

TAF: DRRN 150500Z 1506/1612 08008KT 8000 NSC TEMPO 1506/1508 4000 DU TEMPO 1508/1513 10020KT 4500 BLDU

Observações e previsões do tempo de mais de 4000 aeroportos (mensagens METAR e TAF).

As estações disponíveis são os pontos amarelos e vermelhos sobre o mapa.

Mova o rato sobre o mapa para ver o nome da estação.

Depois clique no ponto para visualizar as observações e previsões meteorológicas.

Para alterar o mapa : clique nos botões verdes com uma cruz preta para aumentar o zoom; no botão verde com uma pitada de zoom; ou nas setas verdes para mapas adjacentes.


METAR-TAF: